createdAt,value
2023-09-06T00:00:53.087Z,1.52
2023-09-06T00:03:21.171Z,1.40
2023-09-06T00:05:49.641Z,2.17
2023-09-06T00:08:17.611Z,1.33
2023-09-06T00:10:47.895Z,1.85
2023-09-06T00:13:15.700Z,1.50
2023-09-06T00:15:45.079Z,2.05
2023-09-06T00:18:13.023Z,1.50
2023-09-06T00:20:41.476Z,2.30
2023-09-06T00:23:11.110Z,2.30
2023-09-06T00:25:39.648Z,1.90
2023-09-06T00:28:09.162Z,1.48
2023-09-06T00:30:37.598Z,1.75
2023-09-06T00:33:08.207Z,1.90
2023-09-06T00:35:36.249Z,1.75
2023-09-06T00:38:03.161Z,1.77
2023-09-06T00:40:31.174Z,2.05
2023-09-06T00:43:01.122Z,1.92
2023-09-06T00:45:33.597Z,1.73
2023-09-06T00:48:02.512Z,1.80
2023-09-06T00:50:30.423Z,1.80
2023-09-06T00:52:58.946Z,1.95
2023-09-06T00:55:27.122Z,2.28
2023-09-06T00:57:56.215Z,1.77
2023-09-06T01:00:25.958Z,2.00
2023-09-06T01:02:55.206Z,2.15
2023-09-06T01:05:23.518Z,2.33
2023-09-06T01:07:55.732Z,2.47
2023-09-06T01:10:23.521Z,2.17
2023-09-06T01:12:52.915Z,2.30
2023-09-06T01:15:20.946Z,2.25
2023-09-06T01:17:51.844Z,2.33
2023-09-06T01:20:37.877Z,2.30
2023-09-06T01:23:17.374Z,2.63
2023-09-06T01:25:47.695Z,1.90
2023-09-06T01:28:15.848Z,2.33
2023-09-06T01:30:43.810Z,2.03
2023-09-06T01:33:11.668Z,1.95
2023-09-06T01:35:39.428Z,2.20
2023-09-06T01:38:07.221Z,1.80
2023-09-06T01:40:34.939Z,2.05
2023-09-06T01:43:04.174Z,2.55
2023-09-06T01:45:32.844Z,2.55
2023-09-06T01:48:04.155Z,2.20
2023-09-06T01:50:32.448Z,1.98
2023-09-06T01:53:00.197Z,2.17
2023-09-06T01:55:28.096Z,2.60
2023-09-06T01:57:56.164Z,2.17
2023-09-06T02:00:28.552Z,2.25
2023-09-06T02:02:57.250Z,2.47
2023-09-06T02:05:25.164Z,2.40
2023-09-06T02:07:53.204Z,2.45
2023-09-06T02:10:21.027Z,2.30
2023-09-06T02:12:48.950Z,2.05
2023-09-06T02:15:16.759Z,2.08
2023-09-06T02:17:46.770Z,2.40
2023-09-06T02:20:21.000Z,2.20
2023-09-06T02:22:52.694Z,2.30
2023-09-06T02:25:24.676Z,2.15
2023-09-06T02:27:53.691Z,2.08
2023-09-06T02:30:22.766Z,2.05
2023-09-06T02:32:52.929Z,2.47
2023-09-06T02:35:21.166Z,1.98
2023-09-06T02:37:49.447Z,2.28
2023-09-06T02:40:19.290Z,1.92
2023-09-06T02:42:49.851Z,2.60
2023-09-06T02:45:17.606Z,1.98
2023-09-06T02:47:50.584Z,2.70
2023-09-06T02:50:23.729Z,2.15
2023-09-06T02:52:54.289Z,2.63
2023-09-06T02:55:22.924Z,2.65
2023-09-06T02:57:51.157Z,2.63
2023-09-06T03:00:26.352Z,2.00
2023-09-06T03:03:00.279Z,2.60
2023-09-06T03:05:30.549Z,2.47
2023-09-06T03:07:58.338Z,2.30
2023-09-06T03:10:26.253Z,2.67
2023-09-06T03:12:58.554Z,2.58
2023-09-06T03:15:29.546Z,2.42
2023-09-06T03:18:00.708Z,2.35
2023-09-06T03:20:34.735Z,2.10
2023-09-06T03:23:18.292Z,2.60
2023-09-06T03:25:48.423Z,2.38
2023-09-06T03:28:16.978Z,2.65
2023-09-06T03:30:44.821Z,2.58
2023-09-06T03:33:13.020Z,2.40
2023-09-06T03:35:45.032Z,2.28
2023-09-06T03:38:16.727Z,2.70
2023-09-06T03:40:44.977Z,2.88
2023-09-06T03:43:16.871Z,2.28
2023-09-06T03:45:46.455Z,2.50
2023-09-06T03:48:15.836Z,2.63
2023-09-06T03:50:45.995Z,2.60
2023-09-06T03:53:16.444Z,2.28
2023-09-06T03:55:44.386Z,2.20
2023-09-06T03:58:12.382Z,2.20
2023-09-06T04:00:44.259Z,2.20
2023-09-06T04:03:14.489Z,2.45
2023-09-06T04:05:45.497Z,2.20
2023-09-06T04:08:18.947Z,2.42
2023-09-06T04:10:50.307Z,2.75
2023-09-06T04:13:18.240Z,2.33
2023-09-06T04:15:46.013Z,2.80
2023-09-06T04:18:14.867Z,2.65
2023-09-06T04:20:47.923Z,2.58
2023-09-06T04:23:17.457Z,2.53
2023-09-06T04:25:46.834Z,2.60
2023-09-06T04:28:17.534Z,2.85
2023-09-06T04:30:48.004Z,2.70
2023-09-06T04:33:16.894Z,2.85
2023-09-06T04:35:48.907Z,2.97
2023-09-06T04:38:19.784Z,2.70
2023-09-06T04:40:50.117Z,2.47
2023-09-06T04:43:18.950Z,2.70
2023-09-06T04:45:48.200Z,2.38
2023-09-06T04:48:18.102Z,2.47
2023-09-06T04:50:48.764Z,2.72
2023-09-06T04:53:19.099Z,2.75
2023-09-06T04:55:50.552Z,2.72
2023-09-06T04:58:19.371Z,2.47
2023-09-06T05:00:49.913Z,2.35
2023-09-06T05:03:19.873Z,2.15
2023-09-06T05:05:49.741Z,2.42
2023-09-06T05:08:17.954Z,2.53
2023-09-06T05:10:45.866Z,2.60
2023-09-06T05:13:13.692Z,2.35
2023-09-06T05:15:41.919Z,2.67
2023-09-06T05:18:10.188Z,2.42
2023-09-06T05:20:40.844Z,2.20
2023-09-06T05:23:12.106Z,2.15
2023-09-06T05:25:41.013Z,2.42
2023-09-06T05:28:11.111Z,1.85
2023-09-06T05:30:40.858Z,1.88
2023-09-06T05:33:09.244Z,1.80
2023-09-06T05:35:37.091Z,1.70
2023-09-06T05:38:05.446Z,2.03
2023-09-06T05:40:35.526Z,1.80
2023-09-06T05:43:05.098Z,2.15
2023-09-06T05:45:33.282Z,1.50
2023-09-06T05:48:01.185Z,1.42
2023-09-06T05:50:29.319Z,1.52
2023-09-06T05:52:57.336Z,1.65
2023-09-06T05:55:25.854Z,2.45
2023-09-06T05:57:55.087Z,2.00
2023-09-06T06:00:23.702Z,2.60
2023-09-06T06:02:52.487Z,2.13
2023-09-06T06:05:20.522Z,2.20
2023-09-06T06:07:48.298Z,2.05
2023-09-06T06:10:16.289Z,2.60
2023-09-06T06:12:44.398Z,1.98
2023-09-06T06:15:14.595Z,1.85
2023-09-06T06:17:43.373Z,1.98
2023-09-06T06:20:13.385Z,2.50
2023-09-06T06:22:41.727Z,2.28
2023-09-06T06:25:11.816Z,2.33
2023-09-06T06:27:41.209Z,2.22
2023-09-06T06:30:12.422Z,2.53
2023-09-06T06:32:41.628Z,2.60
2023-09-06T06:35:13.098Z,2.83
2023-09-06T06:37:40.935Z,2.28
2023-09-06T06:40:10.806Z,2.60
2023-09-06T06:42:40.517Z,2.67
2023-09-06T06:45:10.478Z,2.60
2023-09-06T06:47:38.756Z,3.03
2023-09-06T06:50:08.937Z,2.47
2023-09-06T06:52:37.105Z,2.78
2023-09-06T06:55:06.031Z,3.05
2023-09-06T06:57:36.923Z,2.28
2023-09-06T07:00:12.120Z,2.45
2023-09-06T07:02:40.755Z,2.88
2023-09-06T07:05:10.488Z,2.70
2023-09-06T07:07:38.421Z,2.88
2023-09-06T07:10:09.052Z,2.67
2023-09-06T07:12:37.687Z,3.00
2023-09-06T07:15:07.805Z,2.65
2023-09-06T07:17:36.115Z,3.08
2023-09-06T07:20:06.157Z,2.35
2023-09-06T07:22:35.439Z,2.55
2023-09-06T07:25:06.615Z,3.20
2023-09-06T07:27:34.453Z,2.67
2023-09-06T07:30:02.339Z,2.88
2023-09-06T07:32:30.097Z,2.58
2023-09-06T07:34:57.902Z,3.00
2023-09-06T07:37:26.225Z,2.70
2023-09-06T07:39:55.288Z,2.92
2023-09-06T07:42:23.027Z,2.60
2023-09-06T07:44:51.215Z,2.97
2023-09-06T07:47:19.147Z,3.22
2023-09-06T07:49:47.147Z,2.65
2023-09-06T07:52:15.094Z,2.67
2023-09-06T07:54:42.895Z,2.33
2023-09-06T07:57:12.282Z,3.03
2023-09-06T07:59:41.178Z,2.95
2023-09-06T08:02:09.227Z,2.95
2023-09-06T08:04:37.027Z,2.70
2023-09-06T08:07:05.834Z,2.58
2023-09-06T08:09:33.738Z,2.88
2023-09-06T08:12:01.538Z,2.75
2023-09-06T08:14:32.961Z,3.28
2023-09-06T08:17:01.019Z,3.38
2023-09-06T08:19:28.974Z,3.00
2023-09-06T08:21:56.763Z,3.28
2023-09-06T08:24:25.921Z,3.00
2023-09-06T08:26:53.793Z,3.42
2023-09-06T08:29:21.766Z,2.83
2023-09-06T08:31:51.091Z,2.85
2023-09-06T08:34:19.006Z,3.25
2023-09-06T08:36:46.783Z,3.38
2023-09-06T08:39:14.648Z,3.15
2023-09-06T08:41:47.292Z,2.88
2023-09-06T08:44:21.672Z,2.83
2023-09-06T08:49:24.492Z,3.15
2023-09-06T08:51:53.280Z,3.00
2023-09-06T08:54:21.489Z,3.00
2023-09-06T08:56:50.039Z,2.70
2023-09-06T08:59:18.578Z,3.03
2023-09-06T09:01:46.973Z,3.10
2023-09-06T09:04:16.344Z,3.20
2023-09-06T09:06:44.976Z,2.85
2023-09-06T09:09:18.237Z,3.28
2023-09-06T09:11:47.294Z,3.03
2023-09-06T09:14:23.473Z,2.85
2023-09-06T09:16:58.626Z,3.08
2023-09-06T09:19:28.619Z,3.38
2023-09-06T09:21:57.239Z,2.83
2023-09-06T09:24:30.963Z,3.05
2023-09-06T09:26:59.240Z,3.10
2023-09-06T09:29:29.730Z,2.75
2023-09-06T09:32:04.715Z,2.95
2023-09-06T09:34:33.995Z,2.88
2023-09-06T09:37:06.738Z,2.85
2023-09-06T09:39:34.741Z,2.55
2023-09-06T09:42:03.256Z,2.97
2023-09-06T09:44:30.083Z,2.92
2023-09-06T09:47:01.953Z,3.00
2023-09-06T09:49:41.249Z,2.70
2023-09-06T09:52:13.996Z,3.10
2023-09-06T09:54:46.860Z,2.88
2023-09-06T09:57:15.021Z,3.15
2023-09-06T09:59:44.417Z,2.63
2023-09-06T10:02:22.277Z,2.35
2023-09-06T10:04:59.403Z,2.97
2023-09-06T10:07:42.872Z,2.65
2023-09-06T10:10:16.384Z,2.97
2023-09-06T10:12:47.125Z,3.25
2023-09-06T10:15:16.062Z,2.53
2023-09-06T10:17:44.609Z,2.75
2023-09-06T10:20:14.433Z,3.08
2023-09-06T10:22:45.025Z,3.60
2023-09-06T10:25:13.554Z,2.67
2023-09-06T10:27:49.127Z,2.85
2023-09-06T10:30:18.779Z,2.72
2023-09-06T10:32:48.567Z,2.78
2023-09-06T10:35:27.088Z,3.25
2023-09-06T10:38:11.729Z,2.70
2023-09-06T10:44:04.550Z,2.53
2023-09-06T10:46:34.537Z,2.90
2023-09-06T10:49:22.562Z,3.10
2023-09-06T10:52:04.228Z,2.70
2023-09-06T10:54:36.504Z,2.92
2023-09-06T10:57:08.179Z,3.50
2023-09-06T10:59:40.129Z,3.25
2023-09-06T11:02:27.643Z,2.67
2023-09-06T11:05:08.794Z,3.03
2023-09-06T11:07:50.869Z,2.83
2023-09-06T11:10:24.971Z,2.80
2023-09-06T11:15:25.216Z,2.38
2023-09-06T11:17:59.541Z,2.92
2023-09-06T11:20:27.401Z,2.55
2023-09-06T11:23:00.386Z,2.70
2023-09-06T11:25:30.324Z,3.25
2023-09-06T11:28:03.354Z,2.80
2023-09-06T11:30:33.433Z,3.05
2023-09-06T11:33:02.284Z,2.60
2023-09-06T11:35:38.524Z,3.10
2023-09-06T11:38:11.668Z,3.03
2023-09-06T11:40:42.632Z,2.72
2023-09-06T11:43:12.977Z,2.70
2023-09-06T11:45:44.660Z,2.63
2023-09-06T11:48:20.105Z,2.88
2023-09-06T11:50:52.759Z,2.50
2023-09-06T11:53:21.930Z,2.50
2023-09-06T11:55:51.636Z,2.75
2023-09-06T11:58:19.583Z,2.42
2023-09-06T12:00:51.780Z,2.63
2023-09-06T12:03:23.430Z,3.25
2023-09-06T12:05:54.325Z,2.90
2023-09-06T12:08:24.932Z,2.80
2023-09-06T12:10:59.342Z,2.55
2023-09-06T12:13:32.417Z,2.47
2023-09-06T12:16:01.039Z,2.20
2023-09-06T12:18:30.528Z,2.17
2023-09-06T12:21:00.281Z,2.65
2023-09-06T12:23:31.032Z,2.60
2023-09-06T12:25:59.664Z,2.90
2023-09-06T12:28:29.374Z,2.60
2023-09-06T12:31:02.953Z,2.40
2023-09-06T12:33:31.665Z,2.53
2023-09-06T12:36:04.888Z,2.38
2023-09-06T12:38:34.668Z,2.63
2023-09-06T12:41:04.915Z,2.67
2023-09-06T12:43:35.952Z,2.38
2023-09-06T12:46:07.516Z,2.35
2023-09-06T12:48:35.790Z,2.60
2023-09-06T12:51:04.184Z,2.25
2023-09-06T12:53:33.371Z,2.25
2023-09-06T12:56:03.652Z,2.30
2023-09-06T12:58:31.797Z,2.63
2023-09-06T13:01:01.342Z,2.20
2023-09-06T13:03:29.463Z,2.40
2023-09-06T13:05:57.637Z,2.70
2023-09-06T13:08:26.150Z,2.55
2023-09-06T13:10:54.028Z,2.40
2023-09-06T13:13:23.113Z,2.10
2023-09-06T13:15:50.931Z,2.28
2023-09-06T13:18:20.364Z,2.35
2023-09-06T13:20:50.438Z,2.58
2023-09-06T13:23:18.229Z,2.90
2023-09-06T13:25:46.044Z,2.28
2023-09-06T13:28:13.825Z,2.15
2023-09-06T13:30:43.021Z,2.40
2023-09-06T13:33:11.029Z,2.20
2023-09-06T13:35:38.961Z,2.40
2023-09-06T13:38:07.118Z,2.08
2023-09-06T13:40:35.873Z,2.17
2023-09-06T13:43:04.483Z,3.00
2023-09-06T13:45:32.375Z,2.42
2023-09-06T13:48:01.650Z,2.22
2023-09-06T13:50:29.592Z,2.20
2023-09-06T13:52:57.342Z,2.20
2023-09-06T13:55:26.245Z,2.00
2023-09-06T13:57:54.050Z,2.40
2023-09-06T14:00:21.879Z,2.42
2023-09-06T14:02:49.937Z,2.42
2023-09-06T14:05:19.555Z,2.50
2023-09-06T14:07:47.848Z,2.10
2023-09-06T14:10:15.935Z,1.98
2023-09-06T14:12:43.673Z,1.88
2023-09-06T14:15:12.291Z,2.22
2023-09-06T14:17:40.123Z,1.92
2023-09-06T14:20:10.695Z,2.25
2023-09-06T14:22:39.750Z,2.30
2023-09-06T14:25:08.443Z,2.47
2023-09-06T14:27:36.224Z,2.28
2023-09-06T14:30:03.964Z,2.20
2023-09-06T14:32:32.187Z,2.25
2023-09-06T14:35:00.517Z,2.10
2023-09-06T14:37:28.331Z,2.13
2023-09-06T14:39:57.787Z,2.10
2023-09-06T14:42:25.617Z,2.15
2023-09-06T14:44:53.373Z,2.20
2023-09-06T14:47:21.434Z,2.13
2023-09-06T14:49:50.991Z,1.98
2023-09-06T14:52:18.871Z,2.50
2023-09-06T14:54:46.865Z,1.95
2023-09-06T14:57:17.568Z,2.10
2023-09-06T14:59:45.371Z,2.30
2023-09-06T15:02:13.276Z,2.30
2023-09-06T15:04:41.156Z,2.05
2023-09-06T15:07:08.914Z,2.13
2023-09-06T15:09:38.372Z,2.20
2023-09-06T15:12:07.643Z,2.42
2023-09-06T15:14:37.207Z,1.83
2023-09-06T15:17:05.358Z,2.20
2023-09-06T15:19:34.171Z,2.08
2023-09-06T15:22:02.005Z,2.33
2023-09-06T15:24:29.990Z,2.03
2023-09-06T15:26:58.217Z,2.22
2023-09-06T15:29:26.068Z,1.75
2023-09-06T15:31:55.318Z,2.15
2023-09-06T15:34:23.341Z,2.50
2023-09-06T15:36:51.252Z,2.10
2023-09-06T15:39:20.618Z,2.47
2023-09-06T15:41:48.645Z,2.13
2023-09-06T15:44:17.180Z,1.92
2023-09-06T15:46:45.009Z,1.95
2023-09-06T15:49:14.134Z,2.35
2023-09-06T15:51:42.063Z,2.05
2023-09-06T15:54:10.450Z,2.10
2023-09-06T15:56:38.301Z,2.00
2023-09-06T15:59:06.853Z,1.88
2023-09-06T16:01:34.740Z,2.08
2023-09-06T16:04:02.658Z,2.22
2023-09-06T16:06:31.991Z,1.98
2023-09-06T16:09:00.918Z,2.22
2023-09-06T16:11:28.757Z,1.90
2023-09-06T16:13:56.695Z,1.98
2023-09-06T16:16:24.771Z,2.00
2023-09-06T16:18:53.812Z,2.00
2023-09-06T16:21:21.559Z,1.70
2023-09-06T16:23:50.950Z,2.28
2023-09-06T16:26:18.942Z,1.92
2023-09-06T16:28:46.816Z,2.10
2023-09-06T16:31:14.654Z,1.90
2023-09-06T16:33:42.563Z,1.77
2023-09-06T16:36:10.457Z,2.33
2023-09-06T16:38:38.253Z,2.38
2023-09-06T16:41:07.341Z,2.28
2023-09-06T16:43:35.083Z,2.13
2023-09-06T16:46:02.983Z,2.75
2023-09-06T16:48:30.990Z,2.30
2023-09-06T16:50:58.967Z,2.40
2023-09-06T16:53:26.768Z,2.20
2023-09-06T16:55:54.544Z,2.50
2023-09-06T16:58:23.601Z,2.38
2023-09-06T17:00:51.391Z,2.90
2023-09-06T17:03:19.274Z,2.47
2023-09-06T17:05:48.332Z,2.65
2023-09-06T17:08:19.469Z,2.42
2023-09-06T17:10:47.606Z,2.55
2023-09-06T17:13:15.456Z,2.58
2023-09-06T17:15:45.041Z,2.78
2023-09-06T17:18:14.507Z,2.75
2023-09-06T17:20:42.290Z,2.58
2023-09-06T17:23:10.148Z,2.85
2023-09-06T17:25:39.892Z,2.90
2023-09-06T17:28:09.484Z,2.35
2023-09-06T17:30:39.080Z,2.72
2023-09-06T17:33:15.610Z,2.22
2023-09-06T17:35:46.312Z,2.50
2023-09-06T17:38:16.957Z,2.80
2023-09-06T17:40:47.477Z,2.50
2023-09-06T17:43:16.431Z,2.35
2023-09-06T17:45:46.954Z,2.80
2023-09-06T17:48:19.514Z,2.95
2023-09-06T17:50:51.690Z,2.90
2023-09-06T17:53:23.222Z,2.58
2023-09-06T17:55:51.946Z,2.72
2023-09-06T17:58:21.036Z,2.72
2023-09-06T18:00:50.440Z,2.65
2023-09-06T18:03:20.118Z,2.90
2023-09-06T18:05:55.930Z,2.72
2023-09-06T18:08:26.583Z,2.47
2023-09-06T18:10:54.549Z,2.67
2023-09-06T18:13:22.712Z,2.40
2023-09-06T18:15:54.008Z,2.53
2023-09-06T18:18:24.506Z,2.53
2023-09-06T18:20:56.666Z,3.00
2023-09-06T18:23:24.896Z,2.55
2023-09-06T18:25:57.294Z,2.80
2023-09-06T18:28:25.237Z,3.00
2023-09-06T18:30:54.260Z,2.60
2023-09-06T18:33:25.470Z,2.50
2023-09-06T18:35:55.848Z,2.42
2023-09-06T18:38:25.971Z,2.55
2023-09-06T18:40:56.812Z,2.60
2023-09-06T18:43:25.646Z,2.85
2023-09-06T18:45:53.577Z,2.85
2023-09-06T18:48:24.121Z,2.28
2023-09-06T18:53:07.802Z,2.13
2023-09-06T18:55:36.447Z,2.90
2023-09-06T18:58:06.315Z,2.42
2023-09-06T19:00:36.532Z,2.58
2023-09-06T19:03:06.877Z,2.30
2023-09-06T19:05:36.553Z,2.80
2023-09-06T19:08:07.258Z,2.50
2023-09-06T19:10:35.751Z,2.60
2023-09-06T19:13:04.884Z,2.78
2023-09-06T19:15:33.808Z,2.65
2023-09-06T19:18:01.689Z,2.67
2023-09-06T19:20:29.722Z,2.40
2023-09-06T19:22:57.671Z,2.60
2023-09-06T19:25:28.262Z,2.28
2023-09-06T19:27:56.039Z,2.50
2023-09-06T19:30:23.853Z,2.75
2023-09-06T19:32:51.661Z,2.42
2023-09-06T19:35:19.984Z,2.78
2023-09-06T19:37:47.817Z,2.78
2023-09-06T19:40:15.540Z,2.38
2023-09-06T19:42:44.662Z,2.53
2023-09-06T19:45:12.511Z,1.90
2023-09-06T19:47:40.366Z,2.42
2023-09-06T19:50:09.540Z,2.38
2023-09-06T19:52:37.410Z,2.70
2023-09-06T19:55:06.674Z,2.55
2023-09-06T19:57:34.880Z,2.42
2023-09-06T20:00:05.830Z,2.78
2023-09-06T20:02:34.310Z,2.40
2023-09-06T20:05:02.510Z,2.30
2023-09-06T20:07:31.030Z,2.58
2023-09-06T20:09:58.815Z,2.58
2023-09-06T20:12:26.556Z,2.50
2023-09-06T20:14:54.345Z,2.53
2023-09-06T20:17:23.786Z,2.50
2023-09-06T20:19:51.538Z,2.78
2023-09-06T20:22:19.319Z,2.30
2023-09-06T20:24:47.121Z,2.58
2023-09-06T20:27:14.898Z,2.40
2023-09-06T20:29:44.479Z,2.53
2023-09-06T20:32:12.298Z,2.45
2023-09-06T20:34:43.033Z,2.55
2023-09-06T20:37:11.563Z,2.63
2023-09-06T20:39:39.300Z,2.45
2023-09-06T20:42:07.066Z,2.45
2023-09-06T20:44:35.134Z,2.45
2023-09-06T20:47:04.663Z,2.50
2023-09-06T20:49:33.110Z,2.50
2023-09-06T20:52:02.441Z,2.65
2023-09-06T20:54:30.214Z,2.42
2023-09-06T20:56:57.969Z,2.53
2023-09-06T20:59:25.702Z,2.47
2023-09-06T21:01:53.588Z,2.95
2023-09-06T21:04:21.369Z,2.72
2023-09-06T21:06:49.257Z,2.58
2023-09-06T21:09:18.362Z,2.95
2023-09-06T21:11:46.142Z,2.70
2023-09-06T21:14:13.923Z,2.92
2023-09-06T21:16:41.704Z,2.40
2023-09-06T21:19:10.897Z,2.05
2023-09-06T21:21:38.744Z,2.33
2023-09-06T21:24:09.478Z,2.63
2023-09-06T21:26:40.204Z,2.50
2023-09-06T21:29:18.023Z,2.63
2023-09-06T21:31:53.933Z,2.40
2023-09-06T21:34:23.293Z,2.58
2023-09-06T21:36:51.214Z,2.63
2023-09-06T21:39:19.017Z,2.75
2023-09-06T21:41:48.123Z,2.80
2023-09-06T21:44:17.357Z,2.80
2023-09-06T21:46:45.156Z,3.17
2023-09-06T21:49:13.927Z,2.50
2023-09-06T21:51:41.755Z,2.75
2023-09-06T21:54:09.529Z,2.78
2023-09-06T21:56:37.381Z,2.85
2023-09-06T21:59:07.442Z,2.55
2023-09-06T22:01:37.717Z,2.70
2023-09-06T22:04:06.322Z,2.67
2023-09-06T22:06:35.252Z,2.70
2023-09-06T22:09:04.286Z,2.50
2023-09-06T22:11:32.485Z,2.47
2023-09-06T22:14:00.225Z,2.88
2023-09-06T22:16:29.546Z,2.50
2023-09-06T22:18:57.505Z,2.47
2023-09-06T22:21:25.718Z,2.80
2023-09-06T22:23:53.742Z,2.63
2023-09-06T22:26:21.514Z,3.05
2023-09-06T22:28:49.846Z,2.72
2023-09-06T22:31:17.698Z,2.50
2023-09-06T22:33:46.989Z,2.53
2023-09-06T22:36:14.810Z,2.75
2023-09-06T22:38:42.664Z,2.25
2023-09-06T22:41:10.708Z,2.75
2023-09-06T22:43:38.368Z,2.45
2023-09-06T22:46:06.261Z,2.60
2023-09-06T22:48:52.245Z,2.45
2023-09-06T22:51:23.589Z,2.50
2023-09-06T22:53:51.498Z,2.85
2023-09-06T22:56:19.258Z,2.60
2023-09-06T22:58:47.067Z,2.90
2023-09-06T23:01:14.959Z,2.88
2023-09-06T23:03:44.215Z,2.60
2023-09-06T23:06:12.956Z,2.80
2023-09-06T23:08:44.867Z,2.67
2023-09-06T23:11:13.280Z,2.67
2023-09-06T23:13:41.063Z,2.78
2023-09-06T23:16:09.948Z,2.67
2023-09-06T23:18:44.137Z,2.50
2023-09-06T23:21:13.845Z,2.90
2023-09-06T23:23:45.070Z,2.47
2023-09-06T23:26:14.660Z,2.75
2023-09-06T23:28:45.666Z,2.72
2023-09-06T23:31:17.631Z,3.22
2023-09-06T23:33:51.102Z,3.10
2023-09-06T23:36:20.081Z,2.85
2023-09-06T23:38:50.304Z,2.90
2023-09-06T23:41:19.102Z,2.80
2023-09-06T23:43:48.250Z,2.60
2023-09-06T23:46:18.349Z,2.58
2023-09-06T23:48:46.278Z,2.58
2023-09-06T23:51:14.163Z,2.70
2023-09-06T23:53:41.927Z,2.55
2023-09-06T23:56:11.962Z,3.17
2023-09-06T23:58:39.813Z,2.67
